Ardsley On Hudson, New York
Current Conditions -  °F | °C
As of 7:56 AM on Thursday 18 Dec 2014 (Local Time) from KHPN Reporting Station
Broken Clouds Broken Clouds  
Wind Chill: 26°   Ceiling: 3500
Heat Index: 36°   Visibility: 10mi
Dew Point: 23°   Wind: 16mph
Humidity: 59%   Direction: 290°WNW
Pressure: 29.91"   Gusts: 23mph
Location:  41.02°N, 73.87°W
Report Text: KHPN 181256Z 29014G20KT 10SM BKN035 02/M05 A2991 RMK AO2 SLP134 T00221050
Loading
Personal Weather Stations






























Interactive Weather Map New forecast layout! Learn more

10-Day Weather Forecast

Advertisements
Track Severe Weather on mobile